sensor_id;sensor_type;location;lat;lon;timestamp;P1;durP1;ratioP1;P2;durP2;ratioP2
7104;SDS011;3594;42.152;24.714;2024-01-16T00:01:56;3.27;;;2.97;;
7104;SDS011;3594;42.152;24.714;2024-01-16T00:04:21;2.77;;;2.57;;
7104;SDS011;3594;42.152;24.714;2024-01-16T00:06:47;2.57;;;2.37;;
7104;SDS011;3594;42.152;24.714;2024-01-16T00:09:12;3.40;;;2.63;;
7104;SDS011;3594;42.152;24.714;2024-01-16T00:11:41;2.47;;;2.27;;
7104;SDS011;3594;42.152;24.714;2024-01-16T00:14:07;3.70;;;3.20;;
7104;SDS011;3594;42.152;24.714;2024-01-16T00:16:32;3.53;;;3.03;;
7104;SDS011;3594;42.152;24.714;2024-01-16T00:18:58;2.67;;;2.47;;
7104;SDS011;3594;42.152;24.714;2024-01-16T00:21:23;2.47;;;2.30;;
7104;SDS011;3594;42.152;24.714;2024-01-16T00:23:48;2.10;;;2.00;;
7104;SDS011;3594;42.152;24.714;2024-01-16T00:26:20;7.60;;;3.70;;
7104;SDS011;3594;42.152;24.714;2024-01-16T00:28:49;3.33;;;3.03;;
7104;SDS011;3594;42.152;24.714;2024-01-16T00:31:14;2.67;;;2.20;;
7104;SDS011;3594;42.152;24.714;2024-01-16T00:33:40;2.33;;;2.17;;
7104;SDS011;3594;42.152;24.714;2024-01-16T00:36:05;2.73;;;2.53;;
7104;SDS011;3594;42.152;24.714;2024-01-16T00:38:33;2.40;;;2.20;;
7104;SDS011;3594;42.152;24.714;2024-01-16T00:40:59;3.43;;;2.83;;
7104;SDS011;3594;42.152;24.714;2024-01-16T00:43:25;1.90;;;1.80;;
7104;SDS011;3594;42.152;24.714;2024-01-16T00:45:50;4.23;;;2.47;;
7104;SDS011;3594;42.152;24.714;2024-01-16T00:48:15;3.27;;;3.00;;
7104;SDS011;3594;42.152;24.714;2024-01-16T00:50:41;3.07;;;2.83;;
7104;SDS011;3594;42.152;24.714;2024-01-16T00:53:06;4.17;;;3.80;;
7104;SDS011;3594;42.152;24.714;2024-01-16T00:55:32;5.33;;;3.03;;
7104;SDS011;3594;42.152;24.714;2024-01-16T00:57:57;2.47;;;2.23;;
7104;SDS011;3594;42.152;24.714;2024-01-16T01:00:22;2.17;;;2.07;;
7104;SDS011;3594;42.152;24.714;2024-01-16T01:02:48;2.10;;;2.00;;
7104;SDS011;3594;42.152;24.714;2024-01-16T01:05:13;2.67;;;2.47;;
7104;SDS011;3594;42.152;24.714;2024-01-16T01:07:38;5.40;;;3.03;;
7104;SDS011;3594;42.152;24.714;2024-01-16T01:10:04;3.00;;;2.73;;
7104;SDS011;3594;42.152;24.714;2024-01-16T01:12:30;3.43;;;2.50;;
7104;SDS011;3594;42.152;24.714;2024-01-16T01:14:55;2.90;;;2.70;;
7104;SDS011;3594;42.152;24.714;2024-01-16T01:17:21;2.83;;;2.50;;
7104;SDS011;3594;42.152;24.714;2024-01-16T01:19:46;3.50;;;3.13;;
7104;SDS011;3594;42.152;24.714;2024-01-16T01:22:12;3.63;;;3.33;;
7104;SDS011;3594;42.152;24.714;2024-01-16T01:24:37;16.13;;;3.53;;
7104;SDS011;3594;42.152;24.714;2024-01-16T01:27:03;5.30;;;3.47;;
7104;SDS011;3594;42.152;24.714;2024-01-16T01:29:29;3.27;;;3.00;;
7104;SDS011;3594;42.152;24.714;2024-01-16T01:31:54;3.10;;;2.90;;
7104;SDS011;3594;42.152;24.714;2024-01-16T01:34:20;2.57;;;2.37;;
7104;SDS011;3594;42.152;24.714;2024-01-16T01:36:46;2.67;;;2.40;;
7104;SDS011;3594;42.152;24.714;2024-01-16T01:39:12;2.60;;;2.43;;
7104;SDS011;3594;42.152;24.714;2024-01-16T01:41:38;4.23;;;3.83;;
7104;SDS011;3594;42.152;24.714;2024-01-16T01:44:05;3.13;;;2.93;;
7104;SDS011;3594;42.152;24.714;2024-01-16T01:46:30;2.33;;;2.23;;
7104;SDS011;3594;42.152;24.714;2024-01-16T01:48:59;3.40;;;3.13;;
7104;SDS011;3594;42.152;24.714;2024-01-16T01:51:24;3.60;;;2.77;;
7104;SDS011;3594;42.152;24.714;2024-01-16T01:53:50;7.20;;;4.30;;
7104;SDS011;3594;42.152;24.714;2024-01-16T01:56:17;3.00;;;2.73;;
7104;SDS011;3594;42.152;24.714;2024-01-16T01:58:45;3.37;;;3.00;;
7104;SDS011;3594;42.152;24.714;2024-01-16T02:01:12;2.87;;;2.67;;
7104;SDS011;3594;42.152;24.714;2024-01-16T02:03:43;3.13;;;2.93;;
7104;SDS011;3594;42.152;24.714;2024-01-16T02:06:10;3.93;;;3.63;;
7104;SDS011;3594;42.152;24.714;2024-01-16T02:08:36;3.17;;;2.97;;
7104;SDS011;3594;42.152;24.714;2024-01-16T02:11:02;3.80;;;3.03;;
7104;SDS011;3594;42.152;24.714;2024-01-16T02:13:27;3.53;;;3.30;;
7104;SDS011;3594;42.152;24.714;2024-01-16T02:15:53;2.87;;;2.67;;
7104;SDS011;3594;42.152;24.714;2024-01-16T02:18:19;2.13;;;2.03;;
7104;SDS011;3594;42.152;24.714;2024-01-16T02:20:44;1.93;;;1.80;;
7104;SDS011;3594;42.152;24.714;2024-01-16T02:23:12;4.93;;;3.07;;
7104;SDS011;3594;42.152;24.714;2024-01-16T02:25:42;2.47;;;2.27;;
7104;SDS011;3594;42.152;24.714;2024-01-16T02:28:08;3.77;;;3.47;;
7104;SDS011;3594;42.152;24.714;2024-01-16T02:30:34;2.70;;;2.50;;
7104;SDS011;3594;42.152;24.714;2024-01-16T02:32:59;4.63;;;3.17;;
7104;SDS011;3594;42.152;24.714;2024-01-16T02:35:25;3.37;;;2.60;;
7104;SDS011;3594;42.152;24.714;2024-01-16T02:37:50;6.90;;;3.90;;
7104;SDS011;3594;42.152;24.714;2024-01-16T02:40:16;5.10;;;3.40;;
7104;SDS011;3594;42.152;24.714;2024-01-16T02:42:41;3.67;;;3.37;;
7104;SDS011;3594;42.152;24.714;2024-01-16T02:45:08;2.23;;;2.13;;
7104;SDS011;3594;42.152;24.714;2024-01-16T02:47:33;3.17;;;2.50;;
7104;SDS011;3594;42.152;24.714;2024-01-16T02:49:59;7.63;;;3.00;;
7104;SDS011;3594;42.152;24.714;2024-01-16T02:52:25;4.03;;;3.67;;
7104;SDS011;3594;42.152;24.714;2024-01-16T02:54:50;3.87;;;3.37;;
7104;SDS011;3594;42.152;24.714;2024-01-16T02:57:16;6.30;;;4.23;;
7104;SDS011;3594;42.152;24.714;2024-01-16T02:59:44;2.33;;;2.23;;
7104;SDS011;3594;42.152;24.714;2024-01-16T03:02:10;3.10;;;2.80;;
7104;SDS011;3594;42.152;24.714;2024-01-16T03:04:36;4.67;;;3.53;;
7104;SDS011;3594;42.152;24.714;2024-01-16T03:07:02;4.03;;;3.73;;
7104;SDS011;3594;42.152;24.714;2024-01-16T03:09:27;6.53;;;3.40;;
7104;SDS011;3594;42.152;24.714;2024-01-16T03:11:53;3.10;;;2.50;;
7104;SDS011;3594;42.152;24.714;2024-01-16T03:14:18;3.17;;;2.97;;
7104;SDS011;3594;42.152;24.714;2024-01-16T03:16:44;2.67;;;2.40;;
7104;SDS011;3594;42.152;24.714;2024-01-16T03:19:09;2.40;;;2.20;;
7104;SDS011;3594;42.152;24.714;2024-01-16T03:21:37;3.43;;;2.03;;
7104;SDS011;3594;42.152;24.714;2024-01-16T03:24:02;2.60;;;2.40;;
7104;SDS011;3594;42.152;24.714;2024-01-16T03:26:28;2.97;;;2.73;;
7104;SDS011;3594;42.152;24.714;2024-01-16T03:28:53;1.50;;;1.40;;
7104;SDS011;3594;42.152;24.714;2024-01-16T03:31:19;3.73;;;2.50;;
7104;SDS011;3594;42.152;24.714;2024-01-16T03:33:46;2.93;;;2.67;;
7104;SDS011;3594;42.152;24.714;2024-01-16T03:36:11;5.57;;;3.53;;
7104;SDS011;3594;42.152;24.714;2024-01-16T03:38:38;2.50;;;2.30;;
7104;SDS011;3594;42.152;24.714;2024-01-16T03:41:04;2.37;;;2.13;;
7104;SDS011;3594;42.152;24.714;2024-01-16T03:43:32;2.73;;;2.53;;
7104;SDS011;3594;42.152;24.714;2024-01-16T03:45:59;1.60;;;1.50;;
7104;SDS011;3594;42.152;24.714;2024-01-16T03:48:24;2.07;;;1.97;;
7104;SDS011;3594;42.152;24.714;2024-01-16T03:50:50;3.00;;;2.33;;
7104;SDS011;3594;42.152;24.714;2024-01-16T03:53:15;2.57;;;2.37;;
7104;SDS011;3594;42.152;24.714;2024-01-16T03:55:41;3.43;;;3.07;;
7104;SDS011;3594;42.152;24.714;2024-01-16T03:58:06;1.60;;;1.50;;
7104;SDS011;3594;42.152;24.714;2024-01-16T04:00:32;2.03;;;1.93;;
7104;SDS011;3594;42.152;24.714;2024-01-16T04:02:58;2.90;;;2.70;;
7104;SDS011;3594;42.152;24.714;2024-01-16T04:05:23;5.07;;;3.43;;
7104;SDS011;3594;42.152;24.714;2024-01-16T04:07:49;1.80;;;1.70;;
7104;SDS011;3594;42.152;24.714;2024-01-16T04:10:14;6.33;;;2.33;;
7104;SDS011;3594;42.152;24.714;2024-01-16T04:12:40;2.87;;;2.63;;
7104;SDS011;3594;42.152;24.714;2024-01-16T04:15:05;2.37;;;2.23;;
7104;SDS011;3594;42.152;24.714;2024-01-16T04:17:31;2.67;;;2.47;;
7104;SDS011;3594;42.152;24.714;2024-01-16T04:19:56;3.63;;;2.70;;
7104;SDS011;3594;42.152;24.714;2024-01-16T04:22:22;2.20;;;2.10;;
7104;SDS011;3594;42.152;24.714;2024-01-16T04:24:47;8.23;;;5.30;;
7104;SDS011;3594;42.152;24.714;2024-01-16T04:27:12;6.07;;;4.60;;
7104;SDS011;3594;42.152;24.714;2024-01-16T04:29:38;2.87;;;2.67;;
7104;SDS011;3594;42.152;24.714;2024-01-16T04:32:04;5.10;;;3.63;;
7104;SDS011;3594;42.152;24.714;2024-01-16T04:34:29;3.87;;;3.30;;
7104;SDS011;3594;42.152;24.714;2024-01-16T04:36:55;6.47;;;3.63;;
7104;SDS011;3594;42.152;24.714;2024-01-16T04:39:20;3.47;;;3.17;;
7104;SDS011;3594;42.152;24.714;2024-01-16T04:41:47;3.63;;;3.27;;
7104;SDS011;3594;42.152;24.714;2024-01-16T04:44:14;5.10;;;3.33;;
7104;SDS011;3594;42.152;24.714;2024-01-16T04:46:39;3.73;;;2.73;;
7104;SDS011;3594;42.152;24.714;2024-01-16T04:49:04;1.40;;;1.30;;
7104;SDS011;3594;42.152;24.714;2024-01-16T04:51:30;3.07;;;2.80;;
7104;SDS011;3594;42.152;24.714;2024-01-16T04:53:55;2.67;;;2.47;;
7104;SDS011;3594;42.152;24.714;2024-01-16T04:56:21;2.23;;;2.13;;
7104;SDS011;3594;42.152;24.714;2024-01-16T04:58:46;3.23;;;2.17;;
7104;SDS011;3594;42.152;24.714;2024-01-16T05:01:12;2.13;;;2.00;;
7104;SDS011;3594;42.152;24.714;2024-01-16T05:03:38;3.20;;;2.27;;
7104;SDS011;3594;42.152;24.714;2024-01-16T05:06:03;3.43;;;3.17;;
7104;SDS011;3594;42.152;24.714;2024-01-16T05:08:29;2.40;;;2.30;;
7104;SDS011;3594;42.152;24.714;2024-01-16T05:10:55;3.57;;;3.27;;
7104;SDS011;3594;42.152;24.714;2024-01-16T05:13:21;2.00;;;1.90;;
7104;SDS011;3594;42.152;24.714;2024-01-16T05:15:46;1.90;;;1.80;;
7104;SDS011;3594;42.152;24.714;2024-01-16T05:18:12;1.87;;;1.77;;
7104;SDS011;3594;42.152;24.714;2024-01-16T05:20:37;2.07;;;1.97;;
7104;SDS011;3594;42.152;24.714;2024-01-16T05:23:03;2.93;;;2.73;;
7104;SDS011;3594;42.152;24.714;2024-01-16T05:25:29;3.63;;;3.00;;
7104;SDS011;3594;42.152;24.714;2024-01-16T05:27:55;1.87;;;1.77;;
7104;SDS011;3594;42.152;24.714;2024-01-16T05:30:20;3.33;;;3.03;;
7104;SDS011;3594;42.152;24.714;2024-01-16T05:32:46;6.20;;;2.63;;
7104;SDS011;3594;42.152;24.714;2024-01-16T05:35:11;7.03;;;3.70;;
7104;SDS011;3594;42.152;24.714;2024-01-16T05:37:37;3.23;;;2.53;;
7104;SDS011;3594;42.152;24.714;2024-01-16T05:40:02;3.20;;;2.90;;
7104;SDS011;3594;42.152;24.714;2024-01-16T05:42:29;2.00;;;1.90;;
7104;SDS011;3594;42.152;24.714;2024-01-16T05:44:54;2.60;;;2.27;;
7104;SDS011;3594;42.152;24.714;2024-01-16T05:47:20;1.93;;;1.83;;
7104;SDS011;3594;42.152;24.714;2024-01-16T05:49:45;3.33;;;3.03;;
7104;SDS011;3594;42.152;24.714;2024-01-16T05:52:10;3.00;;;2.53;;
7104;SDS011;3594;42.152;24.714;2024-01-16T05:54:36;4.63;;;3.37;;
7104;SDS011;3594;42.152;24.714;2024-01-16T05:57:02;2.03;;;1.90;;
7104;SDS011;3594;42.152;24.714;2024-01-16T05:59:27;2.33;;;2.13;;
7104;SDS011;3594;42.152;24.714;2024-01-16T06:01:53;2.73;;;2.53;;
7104;SDS011;3594;42.152;24.714;2024-01-16T06:04:19;2.63;;;2.43;;
7104;SDS011;3594;42.152;24.714;2024-01-16T06:06:44;1.93;;;1.83;;
7104;SDS011;3594;42.152;24.714;2024-01-16T06:09:12;5.13;;;2.33;;
7104;SDS011;3594;42.152;24.714;2024-01-16T06:11:39;1.90;;;1.80;;
7104;SDS011;3594;42.152;24.714;2024-01-16T06:14:06;2.13;;;1.77;;
7104;SDS011;3594;42.152;24.714;2024-01-16T06:16:32;1.77;;;1.67;;
7104;SDS011;3594;42.152;24.714;2024-01-16T06:18:57;2.00;;;1.90;;
7104;SDS011;3594;42.152;24.714;2024-01-16T06:21:23;2.70;;;2.53;;
7104;SDS011;3594;42.152;24.714;2024-01-16T06:23:49;3.50;;;2.97;;
7104;SDS011;3594;42.152;24.714;2024-01-16T06:26:14;3.07;;;2.07;;
7104;SDS011;3594;42.152;24.714;2024-01-16T06:28:40;2.00;;;1.80;;
7104;SDS011;3594;42.152;24.714;2024-01-16T06:31:07;1.53;;;1.43;;
7104;SDS011;3594;42.152;24.714;2024-01-16T06:33:33;5.87;;;2.47;;
7104;SDS011;3594;42.152;24.714;2024-01-16T06:35:59;2.07;;;1.87;;
7104;SDS011;3594;42.152;24.714;2024-01-16T06:38:25;1.83;;;1.73;;
7104;SDS011;3594;42.152;24.714;2024-01-16T06:40:50;2.00;;;1.90;;
7104;SDS011;3594;42.152;24.714;2024-01-16T06:43:16;1.90;;;1.80;;
7104;SDS011;3594;42.152;24.714;2024-01-16T06:45:42;1.27;;;1.27;;
7104;SDS011;3594;42.152;24.714;2024-01-16T06:48:07;1.40;;;1.37;;
7104;SDS011;3594;42.152;24.714;2024-01-16T06:50:33;1.40;;;1.37;;
7104;SDS011;3594;42.152;24.714;2024-01-16T06:52:58;1.30;;;1.30;;
7104;SDS011;3594;42.152;24.714;2024-01-16T06:55:24;3.77;;;1.70;;
7104;SDS011;3594;42.152;24.714;2024-01-16T06:57:49;1.50;;;1.40;;
7104;SDS011;3594;42.152;24.714;2024-01-16T07:00:15;3.70;;;1.80;;
7104;SDS011;3594;42.152;24.714;2024-01-16T07:02:40;1.70;;;1.60;;
7104;SDS011;3594;42.152;24.714;2024-01-16T07:05:08;1.50;;;1.40;;
7104;SDS011;3594;42.152;24.714;2024-01-16T07:07:34;1.40;;;1.33;;
7104;SDS011;3594;42.152;24.714;2024-01-16T07:10:00;1.60;;;1.50;;
7104;SDS011;3594;42.152;24.714;2024-01-16T07:12:25;1.53;;;1.43;;
7104;SDS011;3594;42.152;24.714;2024-01-16T07:14:50;1.40;;;1.37;;
7104;SDS011;3594;42.152;24.714;2024-01-16T07:17:16;1.43;;;1.33;;
7104;SDS011;3594;42.152;24.714;2024-01-16T07:19:41;1.90;;;1.80;;
7104;SDS011;3594;42.152;24.714;2024-01-16T07:22:06;1.47;;;1.37;;
7104;SDS011;3594;42.152;24.714;2024-01-16T07:24:32;2.13;;;1.90;;
7104;SDS011;3594;42.152;24.714;2024-01-16T07:26:57;1.57;;;1.47;;
7104;SDS011;3594;42.152;24.714;2024-01-16T07:29:23;1.83;;;1.73;;
7104;SDS011;3594;42.152;24.714;2024-01-16T07:31:48;1.20;;;1.20;;
7104;SDS011;3594;42.152;24.714;2024-01-16T07:34:14;1.33;;;1.27;;
7104;SDS011;3594;42.152;24.714;2024-01-16T07:36:44;1.67;;;1.43;;
7104;SDS011;3594;42.152;24.714;2024-01-16T07:39:10;1.63;;;1.53;;
7104;SDS011;3594;42.152;24.714;2024-01-16T07:41:35;1.70;;;1.60;;
7104;SDS011;3594;42.152;24.714;2024-01-16T07:44:01;1.73;;;1.37;;
7104;SDS011;3594;42.152;24.714;2024-01-16T07:46:27;1.70;;;1.60;;
7104;SDS011;3594;42.152;24.714;2024-01-16T07:48:53;1.57;;;1.47;;
7104;SDS011;3594;42.152;24.714;2024-01-16T07:51:19;1.83;;;1.73;;
7104;SDS011;3594;42.152;24.714;2024-01-16T07:53:44;1.50;;;1.40;;
7104;SDS011;3594;42.152;24.714;2024-01-16T07:56:10;1.30;;;1.30;;
7104;SDS011;3594;42.152;24.714;2024-01-16T07:58:36;1.50;;;1.40;;
7104;SDS011;3594;42.152;24.714;2024-01-16T08:01:02;1.47;;;1.37;;
7104;SDS011;3594;42.152;24.714;2024-01-16T08:03:27;1.43;;;1.33;;
7104;SDS011;3594;42.152;24.714;2024-01-16T08:05:53;1.20;;;1.20;;
7104;SDS011;3594;42.152;24.714;2024-01-16T08:08:19;1.27;;;1.27;;
7104;SDS011;3594;42.152;24.714;2024-01-16T08:10:44;2.07;;;1.70;;
7104;SDS011;3594;42.152;24.714;2024-01-16T08:13:09;1.33;;;1.33;;
7104;SDS011;3594;42.152;24.714;2024-01-16T08:15:35;1.20;;;1.10;;
7104;SDS011;3594;42.152;24.714;2024-01-16T08:18:00;1.27;;;1.20;;
7104;SDS011;3594;42.152;24.714;2024-01-16T08:20:26;1.50;;;1.40;;
7104;SDS011;3594;42.152;24.714;2024-01-16T08:22:53;1.60;;;1.50;;
7104;SDS011;3594;42.152;24.714;2024-01-16T08:25:18;1.30;;;1.30;;
7104;SDS011;3594;42.152;24.714;2024-01-16T08:27:44;1.53;;;1.43;;
7104;SDS011;3594;42.152;24.714;2024-01-16T08:30:09;1.70;;;1.60;;
7104;SDS011;3594;42.152;24.714;2024-01-16T08:32:36;1.10;;;1.10;;
7104;SDS011;3594;42.152;24.714;2024-01-16T08:35:02;1.40;;;1.30;;
7104;SDS011;3594;42.152;24.714;2024-01-16T08:37:28;3.60;;;1.73;;
7104;SDS011;3594;42.152;24.714;2024-01-16T08:39:53;1.60;;;1.50;;
7104;SDS011;3594;42.152;24.714;2024-01-16T08:42:19;1.20;;;1.20;;
7104;SDS011;3594;42.152;24.714;2024-01-16T08:44:44;1.20;;;1.20;;
7104;SDS011;3594;42.152;24.714;2024-01-16T08:47:09;1.20;;;1.20;;
7104;SDS011;3594;42.152;24.714;2024-01-16T08:49:35;1.60;;;1.50;;
7104;SDS011;3594;42.152;24.714;2024-01-16T08:52:00;1.70;;;1.60;;
7104;SDS011;3594;42.152;24.714;2024-01-16T08:54:27;1.20;;;1.20;;
7104;SDS011;3594;42.152;24.714;2024-01-16T08:56:53;1.30;;;1.20;;
7104;SDS011;3594;42.152;24.714;2024-01-16T08:59:18;1.20;;;1.20;;
7104;SDS011;3594;42.152;24.714;2024-01-16T09:01:43;1.43;;;1.33;;
7104;SDS011;3594;42.152;24.714;2024-01-16T09:04:09;1.00;;;1.00;;
7104;SDS011;3594;42.152;24.714;2024-01-16T09:06:34;1.77;;;1.67;;
7104;SDS011;3594;42.152;24.714;2024-01-16T09:09:00;1.23;;;1.23;;
7104;SDS011;3594;42.152;24.714;2024-01-16T09:11:25;1.50;;;1.40;;
7104;SDS011;3594;42.152;24.714;2024-01-16T09:13:51;1.25;;;1.25;;
7104;SDS011;3594;42.152;24.714;2024-01-16T09:16:16;1.20;;;1.20;;
7104;SDS011;3594;42.152;24.714;2024-01-16T09:18:42;1.53;;;1.43;;
7104;SDS011;3594;42.152;24.714;2024-01-16T09:21:07;1.33;;;1.23;;
7104;SDS011;3594;42.152;24.714;2024-01-16T09:23:33;1.10;;;1.10;;
7104;SDS011;3594;42.152;24.714;2024-01-16T09:25:58;1.60;;;1.50;;
7104;SDS011;3594;42.152;24.714;2024-01-16T09:28:24;4.17;;;1.43;;
7104;SDS011;3594;42.152;24.714;2024-01-16T09:30:49;1.17;;;1.17;;
7104;SDS011;3594;42.152;24.714;2024-01-16T09:33:15;1.20;;;1.20;;
7104;SDS011;3594;42.152;24.714;2024-01-16T09:35:41;1.55;;;1.45;;
7104;SDS011;3594;42.152;24.714;2024-01-16T09:38:07;1.30;;;1.27;;
7104;SDS011;3594;42.152;24.714;2024-01-16T09:40:33;0.93;;;0.93;;
7104;SDS011;3594;42.152;24.714;2024-01-16T09:43:00;3.28;;;1.60;;
7104;SDS011;3594;42.152;24.714;2024-01-16T09:45:26;1.13;;;1.13;;
7104;SDS011;3594;42.152;24.714;2024-01-16T09:47:54;1.20;;;1.20;;
7104;SDS011;3594;42.152;24.714;2024-01-16T09:50:21;1.48;;;1.38;;
7104;SDS011;3594;42.152;24.714;2024-01-16T09:52:48;1.00;;;1.00;;
7104;SDS011;3594;42.152;24.714;2024-01-16T09:55:14;1.20;;;1.20;;
7104;SDS011;3594;42.152;24.714;2024-01-16T09:57:40;1.00;;;1.00;;
7104;SDS011;3594;42.152;24.714;2024-01-16T10:00:07;1.98;;;1.42;;
7104;SDS011;3594;42.152;24.714;2024-01-16T10:02:37;1.20;;;1.20;;
7104;SDS011;3594;42.152;24.714;2024-01-16T10:05:05;1.25;;;1.20;;
7104;SDS011;3594;42.152;24.714;2024-01-16T10:07:30;1.30;;;1.30;;
7104;SDS011;3594;42.152;24.714;2024-01-16T10:09:58;1.15;;;1.13;;
7104;SDS011;3594;42.152;24.714;2024-01-16T10:12:24;1.10;;;1.10;;
7104;SDS011;3594;42.152;24.714;2024-01-16T10:14:50;1.10;;;1.10;;
7104;SDS011;3594;42.152;24.714;2024-01-16T10:17:17;1.00;;;1.00;;
7104;SDS011;3594;42.152;24.714;2024-01-16T10:19:47;1.20;;;1.20;;
7104;SDS011;3594;42.152;24.714;2024-01-16T10:22:19;1.20;;;1.20;;
7104;SDS011;3594;42.152;24.714;2024-01-16T10:24:46;2.15;;;1.65;;
7104;SDS011;3594;42.152;24.714;2024-01-16T10:27:11;1.10;;;1.10;;
7104;SDS011;3594;42.152;24.714;2024-01-16T10:29:54;1.20;;;1.20;;
7104;SDS011;3594;42.152;24.714;2024-01-16T10:32:27;1.20;;;1.15;;
7104;SDS011;3594;42.152;24.714;2024-01-16T10:37:29;1.35;;;1.25;;
7104;SDS011;3594;42.152;24.714;2024-01-16T10:39:55;1.50;;;1.40;;
7104;SDS011;3594;42.152;24.714;2024-01-16T10:42:21;1.75;;;1.65;;
7104;SDS011;3594;42.152;24.714;2024-01-16T10:44:53;1.42;;;1.33;;
7104;SDS011;3594;42.152;24.714;2024-01-16T10:47:20;1.20;;;1.20;;
7104;SDS011;3594;42.152;24.714;2024-01-16T10:49:47;1.10;;;1.10;;
7104;SDS011;3594;42.152;24.714;2024-01-16T10:52:12;1.10;;;1.10;;
7104;SDS011;3594;42.152;24.714;2024-01-16T10:54:39;1.70;;;1.60;;
7104;SDS011;3594;42.152;24.714;2024-01-16T10:57:06;1.23;;;1.20;;
7104;SDS011;3594;42.152;24.714;2024-01-16T11:00:06;1.10;;;1.10;;
7104;SDS011;3594;42.152;24.714;2024-01-16T11:02:31;1.10;;;1.10;;
7104;SDS011;3594;42.152;24.714;2024-01-16T11:05:03;1.10;;;1.10;;
7104;SDS011;3594;42.152;24.714;2024-01-16T11:07:31;1.10;;;1.10;;
7104;SDS011;3594;42.152;24.714;2024-01-16T11:09:57;1.10;;;1.10;;
7104;SDS011;3594;42.152;24.714;2024-01-16T11:12:24;1.00;;;1.00;;
7104;SDS011;3594;42.152;24.714;2024-01-16T11:14:51;1.10;;;1.10;;
7104;SDS011;3594;42.152;24.714;2024-01-16T11:17:18;1.52;;;1.35;;
7104;SDS011;3594;42.152;24.714;2024-01-16T11:19:46;1.20;;;1.20;;
7104;SDS011;3594;42.152;24.714;2024-01-16T11:22:13;1.83;;;1.73;;
7104;SDS011;3594;42.152;24.714;2024-01-16T11:24:41;1.10;;;1.10;;
7104;SDS011;3594;42.152;24.714;2024-01-16T11:27:07;1.20;;;1.20;;
7104;SDS011;3594;42.152;24.714;2024-01-16T11:29:33;1.10;;;1.10;;
7104;SDS011;3594;42.152;24.714;2024-01-16T11:32:00;1.10;;;1.10;;
7104;SDS011;3594;42.152;24.714;2024-01-16T11:37:32;1.25;;;1.20;;
7104;SDS011;3594;42.152;24.714;2024-01-16T11:42:49;1.10;;;1.10;;
7104;SDS011;3594;42.152;24.714;2024-01-16T11:48:08;1.00;;;1.00;;
7104;SDS011;3594;42.152;24.714;2024-01-16T11:50:41;1.02;;;1.02;;
7104;SDS011;3594;42.152;24.714;2024-01-16T11:53:07;1.10;;;1.10;;
7104;SDS011;3594;42.152;24.714;2024-01-16T11:58:35;1.00;;;1.00;;
7104;SDS011;3594;42.152;24.714;2024-01-16T12:00:54;1.10;;;1.10;;
7104;SDS011;3594;42.152;24.714;2024-01-16T12:03:22;1.48;;;1.38;;
7104;SDS011;3594;42.152;24.714;2024-01-16T12:05:57;1.00;;;1.00;;
7104;SDS011;3594;42.152;24.714;2024-01-16T12:08:23;1.10;;;1.10;;
7104;SDS011;3594;42.152;24.714;2024-01-16T12:10:49;1.10;;;1.10;;
7104;SDS011;3594;42.152;24.714;2024-01-16T12:13:15;1.00;;;1.00;;
7104;SDS011;3594;42.152;24.714;2024-01-16T12:15:41;1.00;;;1.00;;
7104;SDS011;3594;42.152;24.714;2024-01-16T12:18:07;1.20;;;1.20;;
7104;SDS011;3594;42.152;24.714;2024-01-16T12:20:33;1.00;;;1.00;;
7104;SDS011;3594;42.152;24.714;2024-01-16T12:23:01;1.33;;;1.23;;
7104;SDS011;3594;42.152;24.714;2024-01-16T12:25:30;1.15;;;1.15;;
7104;SDS011;3594;42.152;24.714;2024-01-16T12:28:15;1.10;;;1.10;;
7104;SDS011;3594;42.152;24.714;2024-01-16T12:30:48;1.02;;;1.02;;
7104;SDS011;3594;42.152;24.714;2024-01-16T12:33:15;1.10;;;1.10;;
7104;SDS011;3594;42.152;24.714;2024-01-16T12:35:42;1.63;;;1.52;;
7104;SDS011;3594;42.152;24.714;2024-01-16T12:38:11;1.08;;;1.08;;
7104;SDS011;3594;42.152;24.714;2024-01-16T12:40:42;1.17;;;1.13;;
7104;SDS011;3594;42.152;24.714;2024-01-16T12:43:18;1.30;;;1.20;;
7104;SDS011;3594;42.152;24.714;2024-01-16T12:45:44;1.10;;;1.10;;
7104;SDS011;3594;42.152;24.714;2024-01-16T12:48:11;1.33;;;1.25;;
7104;SDS011;3594;42.152;24.714;2024-01-16T12:50:36;1.13;;;1.13;;
7104;SDS011;3594;42.152;24.714;2024-01-16T12:55:35;1.15;;;1.15;;
7104;SDS011;3594;42.152;24.714;2024-01-16T12:58:18;1.48;;;1.38;;
7104;SDS011;3594;42.152;24.714;2024-01-16T13:00:45;1.58;;;1.48;;
7104;SDS011;3594;42.152;24.714;2024-01-16T13:03:15;1.33;;;1.15;;
7104;SDS011;3594;42.152;24.714;2024-01-16T13:05:42;1.20;;;1.20;;
7104;SDS011;3594;42.152;24.714;2024-01-16T13:08:17;1.10;;;1.10;;
7104;SDS011;3594;42.152;24.714;2024-01-16T13:10:44;1.02;;;1.02;;
7104;SDS011;3594;42.152;24.714;2024-01-16T13:15:39;1.10;;;1.10;;
7104;SDS011;3594;42.152;24.714;2024-01-16T13:18:04;1.00;;;1.00;;
7104;SDS011;3594;42.152;24.714;2024-01-16T13:20:30;1.10;;;1.10;;
7104;SDS011;3594;42.152;24.714;2024-01-16T13:22:56;1.60;;;1.48;;
7104;SDS011;3594;42.152;24.714;2024-01-16T13:25:22;1.20;;;1.20;;
7104;SDS011;3594;42.152;24.714;2024-01-16T13:27:47;1.40;;;1.30;;
7104;SDS011;3594;42.152;24.714;2024-01-16T13:30:13;1.10;;;1.10;;
7104;SDS011;3594;42.152;24.714;2024-01-16T13:32:39;1.00;;;1.00;;
7104;SDS011;3594;42.152;24.714;2024-01-16T13:35:05;1.13;;;1.13;;
7104;SDS011;3594;42.152;24.714;2024-01-16T13:37:33;1.30;;;1.20;;
7104;SDS011;3594;42.152;24.714;2024-01-16T13:40:02;1.10;;;1.10;;
7104;SDS011;3594;42.152;24.714;2024-01-16T13:42:36;1.13;;;1.13;;
7104;SDS011;3594;42.152;24.714;2024-01-16T13:45:02;1.20;;;1.20;;
7104;SDS011;3594;42.152;24.714;2024-01-16T13:47:29;1.45;;;1.20;;
7104;SDS011;3594;42.152;24.714;2024-01-16T13:49:55;1.20;;;1.15;;
7104;SDS011;3594;42.152;24.714;2024-01-16T13:52:20;1.13;;;1.13;;
7104;SDS011;3594;42.152;24.714;2024-01-16T13:54:45;2.35;;;1.40;;
7104;SDS011;3594;42.152;24.714;2024-01-16T13:57:11;1.27;;;1.27;;
7104;SDS011;3594;42.152;24.714;2024-01-16T13:59:36;1.10;;;1.08;;
7104;SDS011;3594;42.152;24.714;2024-01-16T14:02:02;1.10;;;1.10;;
7104;SDS011;3594;42.152;24.714;2024-01-16T14:04:29;1.10;;;1.10;;
7104;SDS011;3594;42.152;24.714;2024-01-16T14:06:54;1.30;;;1.20;;
7104;SDS011;3594;42.152;24.714;2024-01-16T14:09:20;1.17;;;1.17;;
7104;SDS011;3594;42.152;24.714;2024-01-16T14:11:45;1.17;;;1.17;;
7104;SDS011;3594;42.152;24.714;2024-01-16T14:14:11;1.20;;;1.20;;
7104;SDS011;3594;42.152;24.714;2024-01-16T14:16:36;1.15;;;1.15;;
7104;SDS011;3594;42.152;24.714;2024-01-16T14:19:01;1.23;;;1.23;;
7104;SDS011;3594;42.152;24.714;2024-01-16T14:21:27;1.67;;;1.58;;
7104;SDS011;3594;42.152;24.714;2024-01-16T14:23:52;1.20;;;1.20;;
7104;SDS011;3594;42.152;24.714;2024-01-16T14:26:18;1.43;;;1.37;;
7104;SDS011;3594;42.152;24.714;2024-01-16T14:28:43;1.23;;;1.23;;
7104;SDS011;3594;42.152;24.714;2024-01-16T14:31:08;1.27;;;1.27;;
7104;SDS011;3594;42.152;24.714;2024-01-16T14:33:34;1.30;;;1.20;;
7104;SDS011;3594;42.152;24.714;2024-01-16T14:36:00;1.40;;;1.30;;
7104;SDS011;3594;42.152;24.714;2024-01-16T14:38:25;1.60;;;1.50;;
7104;SDS011;3594;42.152;24.714;2024-01-16T14:40:51;1.20;;;1.20;;
7104;SDS011;3594;42.152;24.714;2024-01-16T14:43:17;1.50;;;1.40;;
7104;SDS011;3594;42.152;24.714;2024-01-16T14:45:42;1.30;;;1.30;;
7104;SDS011;3594;42.152;24.714;2024-01-16T14:48:08;1.30;;;1.20;;
7104;SDS011;3594;42.152;24.714;2024-01-16T14:50:35;1.27;;;1.27;;
7104;SDS011;3594;42.152;24.714;2024-01-16T14:53:00;1.10;;;1.10;;
7104;SDS011;3594;42.152;24.714;2024-01-16T14:55:28;1.60;;;1.50;;
7104;SDS011;3594;42.152;24.714;2024-01-16T14:57:53;1.10;;;1.10;;
7104;SDS011;3594;42.152;24.714;2024-01-16T15:00:25;1.10;;;1.10;;
7104;SDS011;3594;42.152;24.714;2024-01-16T15:02:52;1.20;;;1.10;;
7104;SDS011;3594;42.152;24.714;2024-01-16T15:05:20;1.20;;;1.20;;
7104;SDS011;3594;42.152;24.714;2024-01-16T15:07:47;1.10;;;1.10;;
7104;SDS011;3594;42.152;24.714;2024-01-16T15:10:13;1.10;;;1.10;;
7104;SDS011;3594;42.152;24.714;2024-01-16T15:12:42;1.33;;;1.27;;
7104;SDS011;3594;42.152;24.714;2024-01-16T15:15:08;1.60;;;1.50;;